Garden City South, New York
Current Conditions -  °F | °C
As of 8:51 AM on Monday 22 Dec 2014 (Local Time) from KJFK Reporting Station
Overcast Overcast  
Wind Chill: 37°   Ceiling: 900
Heat Index: 40°   Visibility: 9mi
Dew Point: 34°   Wind: 5mph
Humidity: 79%   Direction: 360°N
Pressure: 30.34"   Gusts: NA
Location:  40.727°N, 73.6328°W
Report Text: KJFK 221351Z 36004KT 9SM OVC009 04/01 A3034 RMK AO2 SLP272 T00440011 $
Loading
Personal Weather Stations






























Interactive Weather Map New forecast layout! Learn more

10-Day Weather Forecast

Advertisements
Track Severe Weather on mobile